createdAt,value
2022-12-13T00:07:09.334Z,17.90
2022-12-13T00:17:13.356Z,14.10
2022-12-13T00:27:17.380Z,20.80
2022-12-13T00:37:21.083Z,15.20
2022-12-13T00:47:25.190Z,18.40
2022-12-13T00:57:29.455Z,14.30
2022-12-13T01:07:33.065Z,12.10
2022-12-13T01:17:36.858Z,11.90
2022-12-13T01:27:40.657Z,9.20
2022-12-13T01:37:44.311Z,10.00
2022-12-13T01:47:57.085Z,9.60
2022-12-13T01:58:03.761Z,17.80
2022-12-13T02:08:11.382Z,13.50
2022-12-13T02:18:18.151Z,10.60
2022-12-13T02:28:54.455Z,9.80
2022-12-13T02:39:04.062Z,9.00
2022-12-13T02:49:10.523Z,10.20
2022-12-13T02:59:15.723Z,7.60
2022-12-13T03:09:38.144Z,8.30
2022-12-13T03:19:41.937Z,10.90
2022-12-13T03:29:46.062Z,10.20
2022-12-13T03:39:49.960Z,11.70
2022-12-13T03:49:54.356Z,9.20
2022-12-13T03:59:58.766Z,13.90
2022-12-13T04:10:04.292Z,14.30
2022-12-13T04:20:28.355Z,9.10
2022-12-13T04:30:32.491Z,17.00
2022-12-13T04:40:36.513Z,17.70
2022-12-13T04:50:40.577Z,16.20
2022-12-13T05:00:44.623Z,12.00
2022-12-13T05:10:48.791Z,17.80
2022-12-13T05:20:53.806Z,15.50
2022-12-13T05:31:23.657Z,12.90
2022-12-13T05:41:32.289Z,15.90
2022-12-13T05:51:36.393Z,14.30
2022-12-13T06:01:43.554Z,12.10
2022-12-13T06:11:48.573Z,11.50
2022-12-13T06:21:54.281Z,13.80
2022-12-13T06:32:03.343Z,12.40
2022-12-13T06:42:14.820Z,15.00
2022-12-13T06:52:26.191Z,14.20
2022-12-13T07:02:30.012Z,18.00
2022-12-13T07:12:34.105Z,17.30
2022-12-13T07:22:46.755Z,19.30
2022-12-13T07:32:51.310Z,18.00
2022-12-13T07:42:57.055Z,20.80
2022-12-13T07:53:08.895Z,21.40
2022-12-13T08:03:24.176Z,22.10
2022-12-13T08:13:28.557Z,32.70
2022-12-13T08:23:34.437Z,36.60
2022-12-13T08:33:40.737Z,34.50
2022-12-13T08:43:44.555Z,34.90
2022-12-13T08:53:48.255Z,35.70
2022-12-13T09:03:52.329Z,48.10
2022-12-13T09:14:01.502Z,154.60
2022-12-13T09:24:13.392Z,121.10
2022-12-13T09:34:28.568Z,44.70
2022-12-13T09:44:53.655Z,27.00
2022-12-13T09:55:21.447Z,14.80
2022-12-13T10:05:39.594Z,12.80
2022-12-13T10:16:13.626Z,12.80
2022-12-13T10:26:23.931Z,16.60
2022-12-13T10:36:33.110Z,12.00
2022-12-13T10:46:42.572Z,14.60
2022-12-13T10:56:50.296Z,11.00
2022-12-13T11:06:54.218Z,12.00
2022-12-13T11:17:01.474Z,7.40
2022-12-13T11:27:33.524Z,7.40
2022-12-13T11:37:45.620Z,6.90
2022-12-13T11:48:04.435Z,8.70
2022-12-13T11:58:32.568Z,9.00
2022-12-13T12:08:48.243Z,8.10
2022-12-13T12:18:53.499Z,7.70
2022-12-13T12:29:15.920Z,12.30
2022-12-13T12:39:38.082Z,10.30
2022-12-13T12:49:54.320Z,10.60
2022-12-13T13:00:09.885Z,12.60
2022-12-13T13:10:25.768Z,12.30
2022-12-13T13:20:30.948Z,12.00
2022-12-13T13:30:35.993Z,16.00
2022-12-13T13:40:39.884Z,13.70
2022-12-13T13:51:02.780Z,13.30
2022-12-13T14:01:44.465Z,28.60
2022-12-13T14:12:22.566Z,23.70
2022-12-13T14:23:04.291Z,29.40
2022-12-13T14:33:20.744Z,42.60
2022-12-13T14:43:30.517Z,33.90
2022-12-13T14:53:41.691Z,22.80
2022-12-13T15:03:46.007Z,24.50
2022-12-13T15:13:53.114Z,49.10
2022-12-13T15:23:59.035Z,44.80
2022-12-13T15:34:30.197Z,44.90
2022-12-13T15:44:48.116Z,37.40
2022-12-13T15:54:56.685Z,63.10
2022-12-13T16:05:09.809Z,58.30
2022-12-13T16:15:51.277Z,70.20
2022-12-13T16:25:55.674Z,51.90
2022-12-13T16:36:00.256Z,58.40
2022-12-13T16:47:15.373Z,62.40
2022-12-13T16:56:31.099Z,88.20
2022-12-13T17:06:36.204Z,92.20
2022-12-13T17:16:41.455Z,91.10
2022-12-13T17:26:54.693Z,84.20
2022-12-13T17:37:05.617Z,79.50
2022-12-13T17:47:14.816Z,83.30
2022-12-13T17:57:19.880Z,87.30
2022-12-13T18:07:25.731Z,148.90
2022-12-13T18:18:08.930Z,186.80
2022-12-13T18:28:01.197Z,183.90
2022-12-13T18:38:07.312Z,188.50
2022-12-13T18:48:13.806Z,166.10
2022-12-13T18:58:22.178Z,172.30
2022-12-13T19:08:31.442Z,145.10
2022-12-13T19:18:38.958Z,127.70
2022-12-13T19:28:46.041Z,133.00
2022-12-13T19:38:57.534Z,125.80
2022-12-13T19:49:05.629Z,139.10
2022-12-13T19:59:13.903Z,150.30
2022-12-13T20:09:33.426Z,144.00
2022-12-13T20:19:41.817Z,158.90
2022-12-13T20:29:50.590Z,187.10
2022-12-13T20:40:01.807Z,168.80
2022-12-13T20:50:11.511Z,171.90
2022-12-13T21:00:19.717Z,188.80
2022-12-13T21:10:28.294Z,151.50
2022-12-13T21:20:34.047Z,159.00
2022-12-13T21:30:39.833Z,159.70
2022-12-13T21:40:51.580Z,166.30
2022-12-13T21:50:56.504Z,179.00
2022-12-13T22:01:00.763Z,181.50
2022-12-13T22:11:20.886Z,177.10
2022-12-13T22:21:26.371Z,209.90
2022-12-13T22:31:30.327Z,198.10
2022-12-13T22:41:34.979Z,219.70
2022-12-13T22:51:40.283Z,222.40
2022-12-13T23:01:47.041Z,223.30
2022-12-13T23:12:10.636Z,183.50
2022-12-13T23:22:14.925Z,198.70
2022-12-13T23:32:19.810Z,187.10
2022-12-13T23:42:23.991Z,172.50
2022-12-13T23:52:27.755Z,174.40
